createdAt,value
2023-04-08T00:01:49.589Z,99.90
2023-04-08T00:04:17.851Z,99.90
2023-04-08T00:06:46.034Z,99.90
2023-04-08T00:09:14.153Z,99.90
2023-04-08T00:11:44.154Z,99.90
2023-04-08T00:14:13.648Z,99.90
2023-04-08T00:16:41.874Z,99.90
2023-04-08T00:19:10.145Z,99.90
2023-04-08T00:21:38.222Z,99.90
2023-04-08T00:24:07.045Z,99.90
2023-04-08T00:26:38.516Z,99.90
2023-04-08T00:29:33.986Z,99.90
2023-04-08T00:32:02.108Z,99.90
2023-04-08T00:34:50.982Z,99.90
2023-04-08T00:37:20.286Z,99.90
2023-04-08T00:39:48.425Z,99.90
2023-04-08T00:42:16.712Z,99.90
2023-04-08T00:44:48.588Z,99.90
2023-04-08T00:47:20.525Z,99.90
2023-04-08T00:49:48.701Z,99.90
2023-04-08T00:52:17.027Z,99.90
2023-04-08T00:54:45.511Z,99.90
2023-04-08T00:57:13.687Z,99.90
2023-04-08T00:59:43.067Z,99.90
2023-04-08T01:02:19.241Z,99.90
2023-04-08T01:04:57.375Z,99.90
2023-04-08T01:07:29.384Z,99.90
2023-04-08T01:10:00.789Z,99.90
2023-04-08T01:12:31.182Z,99.90
2023-04-08T01:15:05.894Z,99.90
2023-04-08T01:17:39.416Z,99.90
2023-04-08T01:20:35.715Z,99.90
2023-04-08T01:23:12.069Z,99.90
2023-04-08T01:25:41.114Z,99.90
2023-04-08T01:28:17.385Z,99.90
2023-04-08T01:30:47.843Z,99.90
2023-04-08T01:33:19.471Z,99.90
2023-04-08T01:35:50.501Z,99.90
2023-04-08T01:38:21.670Z,99.90
2023-04-08T01:40:50.662Z,99.90
2023-04-08T01:43:23.221Z,99.90
2023-04-08T01:45:58.100Z,99.90
2023-04-08T01:48:26.834Z,99.90
2023-04-08T01:50:56.978Z,99.90
2023-04-08T01:53:25.691Z,99.90
2023-04-08T01:55:59.447Z,99.90
2023-04-08T01:58:33.730Z,99.90
2023-04-08T02:01:02.329Z,99.90
2023-04-08T02:03:34.372Z,99.90
2023-04-08T02:06:02.737Z,99.90
2023-04-08T02:08:33.920Z,99.90
2023-04-08T02:11:05.601Z,99.90
2023-04-08T02:13:35.432Z,99.90
2023-04-08T02:16:12.340Z,99.90
2023-04-08T02:18:46.957Z,99.90
2023-04-08T02:21:17.426Z,99.90
2023-04-08T02:23:54.957Z,99.90
2023-04-08T02:26:24.676Z,99.90
2023-04-08T02:28:56.305Z,99.90
2023-04-08T02:31:25.927Z,99.90
2023-04-08T02:33:54.440Z,99.90
2023-04-08T02:36:23.428Z,99.90
2023-04-08T02:38:52.407Z,99.90
2023-04-08T02:41:21.364Z,99.90
2023-04-08T02:43:49.697Z,99.90
2023-04-08T02:46:19.319Z,99.90
2023-04-08T02:48:49.414Z,99.90
2023-04-08T02:51:19.989Z,99.90
2023-04-08T02:53:51.189Z,99.90
2023-04-08T02:56:19.333Z,99.90
2023-04-08T02:59:06.045Z,99.90
2023-04-08T03:01:38.425Z,99.90
2023-04-08T03:04:06.898Z,99.90
2023-04-08T03:06:35.057Z,99.90
2023-04-08T03:09:03.169Z,99.90
2023-04-08T03:11:31.319Z,99.90
2023-04-08T03:13:59.915Z,99.90
2023-04-08T03:16:28.168Z,99.90
2023-04-08T03:18:57.724Z,99.90
2023-04-08T03:21:27.099Z,99.90
2023-04-08T03:23:55.331Z,99.90
2023-04-08T03:26:23.472Z,99.90
2023-04-08T03:28:53.542Z,99.90
2023-04-08T03:31:22.183Z,99.90
2023-04-08T03:33:50.404Z,99.90
2023-04-08T03:36:19.902Z,99.90
2023-04-08T03:38:48.199Z,99.90
2023-04-08T03:41:16.720Z,99.90
2023-04-08T03:43:44.878Z,99.90
2023-04-08T03:46:13.157Z,99.90
2023-04-08T03:48:41.339Z,99.90
2023-04-08T03:51:09.447Z,99.90
2023-04-08T03:53:38.917Z,99.90
2023-04-08T03:56:07.929Z,99.90
2023-04-08T03:58:36.101Z,99.90
2023-04-08T04:01:05.056Z,99.90
2023-04-08T04:03:33.284Z,99.90
2023-04-08T04:06:01.592Z,99.90
2023-04-08T04:08:29.701Z,99.90
2023-04-08T04:11:00.121Z,99.90
2023-04-08T04:13:28.338Z,99.90
2023-04-08T04:15:59.161Z,99.90
2023-04-08T04:18:27.404Z,99.90
2023-04-08T04:20:55.581Z,99.90
2023-04-08T04:23:25.763Z,99.90
2023-04-08T04:25:53.946Z,99.90
2023-04-08T04:28:23.410Z,99.90
2023-04-08T04:30:51.556Z,99.90
2023-04-08T04:33:19.653Z,99.90
2023-04-08T04:35:47.780Z,99.90
2023-04-08T04:38:16.252Z,99.90
2023-04-08T04:40:45.062Z,99.90
2023-04-08T04:43:13.214Z,99.90
2023-04-08T04:45:42.736Z,99.90
2023-04-08T04:48:11.152Z,99.90
2023-04-08T04:50:39.318Z,99.90
2023-04-08T04:53:07.468Z,99.90
2023-04-08T04:55:37.486Z,99.90
2023-04-08T04:58:06.848Z,99.90
2023-04-08T05:00:35.013Z,99.90
2023-04-08T05:03:04.699Z,99.90
2023-04-08T05:05:32.968Z,99.90
2023-04-08T05:08:01.136Z,99.90
2023-04-08T05:10:29.295Z,99.90
2023-04-08T05:12:57.489Z,99.90
2023-04-08T05:15:25.780Z,99.90
2023-04-08T05:17:54.002Z,99.90
2023-04-08T05:20:23.536Z,99.90
2023-04-08T05:22:51.665Z,99.90
2023-04-08T05:25:19.905Z,99.90
2023-04-08T05:27:48.038Z,99.90
2023-04-08T05:30:16.828Z,99.90
2023-04-08T05:32:45.037Z,99.90
2023-04-08T05:35:13.249Z,99.90
2023-04-08T05:37:45.180Z,99.90
2023-04-08T05:40:13.639Z,99.90
2023-04-08T05:42:45.261Z,99.90
2023-04-08T05:45:13.461Z,99.90
2023-04-08T05:47:41.645Z,99.90
2023-04-08T05:50:13.522Z,99.90
2023-04-08T05:52:47.344Z,99.90
2023-04-08T05:55:16.069Z,99.90
2023-04-08T05:57:45.021Z,99.90
2023-04-08T06:00:13.739Z,99.90
2023-04-08T06:02:42.220Z,99.90
2023-04-08T06:05:10.933Z,99.90
2023-04-08T06:07:39.167Z,99.90
2023-04-08T06:10:10.049Z,99.90
2023-04-08T06:12:41.129Z,99.90
2023-04-08T06:15:10.674Z,99.90
2023-04-08T06:17:39.018Z,99.90
2023-04-08T06:20:09.306Z,99.90
2023-04-08T06:22:38.000Z,99.90
2023-04-08T06:25:08.178Z,99.90
2023-04-08T06:27:36.366Z,99.90
2023-04-08T06:30:04.769Z,99.90
2023-04-08T06:32:32.931Z,99.90
2023-04-08T06:35:01.819Z,99.90
2023-04-08T06:37:30.021Z,99.90
2023-04-08T06:39:58.295Z,99.90
2023-04-08T06:42:35.191Z,99.90
2023-04-08T06:45:29.962Z,99.90
2023-04-08T06:47:58.130Z,99.90
2023-04-08T06:50:26.507Z,99.90
2023-04-08T06:52:55.163Z,99.90
2023-04-08T06:55:23.545Z,99.90
2023-04-08T06:57:56.097Z,99.90
2023-04-08T07:00:24.217Z,99.90
2023-04-08T07:02:53.019Z,99.90
2023-04-08T07:05:21.187Z,99.90
2023-04-08T07:07:49.356Z,99.90
2023-04-08T07:10:17.485Z,99.90
2023-04-08T07:12:45.584Z,99.90
2023-04-08T07:15:15.536Z,99.90
2023-04-08T07:17:43.838Z,99.90
2023-04-08T07:20:13.724Z,99.90
2023-04-08T07:22:41.839Z,99.90
2023-04-08T07:25:10.692Z,99.90
2023-04-08T07:27:38.837Z,99.90
2023-04-08T07:30:08.235Z,99.90
2023-04-08T07:32:38.106Z,99.90
2023-04-08T07:35:07.255Z,99.90
2023-04-08T07:37:35.361Z,99.90
2023-04-08T07:40:03.495Z,99.90
2023-04-08T07:42:31.967Z,99.90
2023-04-08T07:45:00.292Z,99.90
2023-04-08T07:47:28.481Z,99.90
2023-04-08T07:49:58.160Z,99.90
2023-04-08T07:52:28.809Z,99.90
2023-04-08T07:54:56.938Z,99.90
2023-04-08T07:57:25.576Z,99.90
2023-04-08T07:59:53.933Z,99.90
2023-04-08T08:02:22.136Z,99.90
2023-04-08T08:04:50.509Z,99.90
2023-04-08T08:07:20.000Z,99.90
2023-04-08T08:09:48.182Z,99.90
2023-04-08T08:12:16.366Z,99.90
2023-04-08T08:14:44.496Z,99.90
2023-04-08T08:17:12.815Z,99.90
2023-04-08T08:19:41.369Z,99.90
2023-04-08T08:22:09.429Z,99.90
2023-04-08T08:24:39.087Z,99.90
2023-04-08T08:27:08.224Z,99.90
2023-04-08T08:29:37.097Z,99.90
2023-04-08T08:32:11.087Z,99.90
2023-04-08T08:34:42.862Z,99.90
2023-04-08T08:37:11.128Z,99.90
2023-04-08T08:39:40.921Z,98.80
2023-04-08T08:42:32.732Z,95.80
2023-04-08T08:45:29.744Z,90.70
2023-04-08T08:48:22.480Z,77.10
2023-04-08T08:50:56.425Z,70.80
2023-04-08T08:53:58.678Z,69.20
2023-04-08T08:56:39.070Z,65.10
2023-04-08T08:59:09.772Z,63.50
2023-04-08T09:01:39.108Z,62.40
2023-04-08T09:04:19.547Z,60.30
2023-04-08T09:06:50.283Z,58.30
2023-04-08T09:09:20.502Z,58.10
2023-04-08T09:11:49.978Z,55.90
2023-04-08T09:14:23.375Z,54.20
2023-04-08T09:16:52.077Z,51.60
2023-04-08T09:19:20.772Z,51.50
2023-04-08T09:22:13.690Z,51.30
2023-04-08T09:24:44.488Z,51.40
2023-04-08T09:27:15.433Z,50.30
2023-04-08T09:29:43.760Z,50.10
2023-04-08T09:32:11.971Z,51.50
2023-04-08T09:34:45.881Z,50.90
2023-04-08T09:37:16.789Z,51.60
2023-04-08T09:39:46.205Z,51.60
2023-04-08T09:42:15.831Z,50.10
2023-04-08T09:44:48.262Z,48.40
2023-04-08T09:47:22.079Z,48.80
2023-04-08T09:49:58.511Z,49.30
2023-04-08T09:52:34.381Z,49.20
2023-04-08T09:55:14.387Z,48.60
2023-04-08T10:00:44.067Z,49.30
2023-04-08T10:03:27.813Z,48.60
2023-04-08T10:05:57.613Z,47.60
2023-04-08T10:08:27.156Z,47.50
2023-04-08T10:10:58.707Z,49.20
2023-04-08T10:16:24.490Z,48.20
2023-04-08T10:18:56.107Z,48.20
2023-04-08T10:21:38.602Z,48.70
2023-04-08T10:24:11.082Z,46.90
2023-04-08T10:26:41.569Z,48.30
2023-04-08T10:29:44.312Z,47.40
2023-04-08T10:32:30.713Z,47.60
2023-04-08T10:34:58.889Z,47.10
2023-04-08T10:40:39.000Z,47.00
2023-04-08T10:43:07.258Z,47.50
2023-04-08T10:45:37.079Z,47.20
2023-04-08T10:48:15.543Z,47.90
2023-04-08T10:50:44.286Z,48.00
2023-04-08T10:53:12.858Z,48.20
2023-04-08T10:55:41.124Z,48.00
2023-04-08T10:58:09.744Z,47.70
2023-04-08T11:00:42.104Z,47.80
2023-04-08T11:03:29.135Z,47.60
2023-04-08T11:06:02.906Z,49.40
2023-04-08T11:08:33.887Z,49.20
2023-04-08T11:11:05.575Z,49.30
2023-04-08T11:13:34.785Z,50.10
2023-04-08T11:16:17.793Z,51.00
2023-04-08T11:18:48.110Z,50.80
2023-04-08T11:21:16.824Z,51.90
2023-04-08T11:23:45.032Z,53.00
2023-04-08T11:26:14.801Z,53.40
2023-04-08T11:28:46.588Z,53.50
2023-04-08T11:31:24.324Z,54.20
2023-04-08T11:33:56.292Z,54.50
2023-04-08T11:36:24.538Z,54.40
2023-04-08T11:38:55.304Z,54.90
2023-04-08T11:41:23.843Z,54.90
2023-04-08T11:43:56.129Z,54.40
2023-04-08T11:46:26.045Z,54.90
2023-04-08T11:49:02.386Z,54.90
2023-04-08T11:51:30.699Z,57.10
2023-04-08T11:53:59.071Z,55.60
2023-04-08T11:56:30.571Z,55.50
2023-04-08T11:58:58.710Z,56.20
2023-04-08T12:01:28.502Z,56.50
2023-04-08T12:04:00.794Z,56.50
2023-04-08T12:06:30.738Z,57.10
2023-04-08T12:09:01.138Z,56.50
2023-04-08T12:11:29.378Z,55.50
2023-04-08T12:14:00.284Z,56.10
2023-04-08T12:16:32.287Z,55.80
2023-04-08T12:19:00.429Z,57.20
2023-04-08T12:21:28.908Z,57.70
2023-04-08T12:23:57.470Z,57.70
2023-04-08T12:26:25.568Z,57.90
2023-04-08T12:28:53.745Z,58.30
2023-04-08T12:31:22.778Z,59.40
2023-04-08T12:33:56.252Z,57.40
2023-04-08T12:36:28.020Z,58.40
2023-04-08T12:38:56.425Z,57.80
2023-04-08T12:41:27.199Z,58.30
2023-04-08T12:43:58.369Z,59.40
2023-04-08T12:46:27.238Z,60.10
2023-04-08T12:49:04.261Z,58.90
2023-04-08T12:51:35.737Z,59.60
2023-04-08T12:54:04.481Z,59.80
2023-04-08T12:56:33.038Z,61.00
2023-04-08T12:59:01.900Z,62.20
2023-04-08T13:01:30.872Z,61.90
2023-04-08T13:04:00.866Z,62.80
2023-04-08T13:06:29.186Z,63.10
2023-04-08T13:09:23.512Z,62.50
2023-04-08T13:11:51.667Z,62.00
2023-04-08T13:14:22.052Z,60.70
2023-04-08T13:16:53.111Z,60.90
2023-04-08T13:19:22.697Z,61.40
2023-04-08T13:21:50.808Z,61.80
2023-04-08T13:24:18.964Z,61.90
2023-04-08T13:26:59.393Z,62.00
2023-04-08T13:29:28.395Z,62.40
2023-04-08T13:31:56.652Z,63.70
2023-04-08T13:34:31.440Z,64.60
2023-04-08T13:37:06.080Z,64.90
2023-04-08T13:39:37.210Z,65.20
2023-04-08T13:42:05.380Z,66.10
2023-04-08T13:44:33.574Z,66.80
2023-04-08T13:47:02.013Z,67.40
2023-04-08T13:49:31.614Z,67.40
2023-04-08T13:52:24.821Z,67.10
2023-04-08T13:54:55.214Z,67.60
2023-04-08T13:57:41.574Z,67.60
2023-04-08T14:00:11.506Z,68.00
2023-04-08T14:02:39.696Z,68.40
2023-04-08T14:05:09.980Z,68.50
2023-04-08T14:07:38.134Z,68.90
2023-04-08T14:10:09.843Z,70.00
2023-04-08T14:12:43.144Z,69.40
2023-04-08T14:15:14.719Z,69.20
2023-04-08T14:17:42.915Z,69.20
2023-04-08T14:20:12.623Z,69.20
2023-04-08T14:22:41.982Z,68.20
2023-04-08T14:25:10.956Z,68.30
2023-04-08T14:27:47.703Z,69.40
2023-04-08T14:30:25.306Z,69.70
2023-04-08T14:33:01.075Z,70.70
2023-04-08T14:35:31.935Z,70.10
2023-04-08T14:38:00.663Z,70.40
2023-04-08T14:40:31.184Z,70.70
2023-04-08T14:42:59.281Z,70.60
2023-04-08T14:45:28.124Z,71.00
2023-04-08T14:47:58.385Z,70.70
2023-04-08T14:50:26.633Z,71.10
2023-04-08T14:52:56.124Z,71.80
2023-04-08T14:55:24.252Z,71.80
2023-04-08T14:57:55.194Z,71.40
2023-04-08T15:00:25.348Z,70.40
2023-04-08T15:02:56.279Z,70.30
2023-04-08T15:05:24.521Z,70.40
2023-04-08T15:07:52.713Z,70.40
2023-04-08T15:10:24.009Z,70.40
2023-04-08T15:12:53.346Z,71.00
2023-04-08T15:15:27.335Z,71.40
2023-04-08T15:17:55.699Z,71.90
2023-04-08T15:20:23.905Z,72.00
2023-04-08T15:22:52.218Z,71.90
2023-04-08T15:25:21.984Z,72.20
2023-04-08T15:27:50.151Z,72.20
2023-04-08T15:30:24.227Z,72.70
2023-04-08T15:32:52.618Z,73.00
2023-04-08T15:35:20.960Z,73.40
2023-04-08T15:37:49.039Z,73.80
2023-04-08T15:40:17.495Z,74.20
2023-04-08T15:42:50.052Z,74.60
2023-04-08T15:45:18.577Z,75.10
2023-04-08T15:47:47.273Z,75.60
2023-04-08T15:50:17.307Z,75.70
2023-04-08T15:52:45.656Z,75.70
2023-04-08T15:55:13.918Z,76.10
2023-04-08T15:57:42.029Z,76.30
2023-04-08T16:00:13.937Z,76.60
2023-04-08T16:02:46.586Z,76.80
2023-04-08T16:05:15.029Z,77.00
2023-04-08T16:07:46.349Z,77.10
2023-04-08T16:10:14.529Z,77.10
2023-04-08T16:12:42.666Z,77.40
2023-04-08T16:15:12.640Z,77.30
2023-04-08T16:17:43.765Z,77.40
2023-04-08T16:20:12.682Z,77.40
2023-04-08T16:22:40.940Z,77.30
2023-04-08T16:25:09.545Z,77.20
2023-04-08T16:27:39.044Z,77.20
2023-04-08T16:30:08.384Z,77.40
2023-04-08T16:32:38.462Z,77.40
2023-04-08T16:35:07.458Z,77.50
2023-04-08T16:37:38.468Z,77.50
2023-04-08T16:40:07.924Z,77.40
2023-04-08T16:42:36.190Z,77.50
2023-04-08T16:45:07.853Z,77.60
2023-04-08T16:47:39.348Z,77.60
2023-04-08T16:50:08.968Z,77.80
2023-04-08T16:52:37.403Z,77.90
2023-04-08T16:55:05.952Z,78.10
2023-04-08T16:57:34.092Z,78.30
2023-04-08T17:00:02.236Z,78.40
2023-04-08T17:02:31.378Z,78.80
2023-04-08T17:05:01.252Z,79.30
2023-04-08T17:07:29.480Z,79.70
2023-04-08T17:09:57.666Z,80.20
2023-04-08T17:12:26.612Z,80.50
2023-04-08T17:14:54.842Z,81.50
2023-04-08T17:17:23.037Z,81.10
2023-04-08T17:19:51.197Z,81.20
2023-04-08T17:22:21.530Z,81.20
2023-04-08T17:24:49.653Z,81.10
2023-04-08T17:27:21.283Z,81.20
2023-04-08T17:29:49.504Z,81.60
2023-04-08T17:32:17.657Z,81.50
2023-04-08T17:34:45.940Z,81.50
2023-04-08T17:37:16.291Z,81.40
2023-04-08T17:39:46.082Z,81.40
2023-04-08T17:42:14.628Z,81.40
2023-04-08T17:44:44.716Z,81.40
2023-04-08T17:47:13.074Z,81.20
2023-04-08T17:49:41.218Z,81.30
2023-04-08T17:52:09.451Z,81.60
2023-04-08T17:54:37.595Z,81.90
2023-04-08T17:57:07.260Z,82.30
2023-04-08T17:59:35.462Z,82.70
2023-04-08T18:02:03.752Z,82.90
2023-04-08T18:04:32.002Z,83.70
2023-04-08T18:07:03.929Z,84.90
2023-04-08T18:09:32.205Z,86.20
2023-04-08T18:12:00.374Z,87.30
2023-04-08T18:14:32.160Z,88.30
2023-04-08T18:17:00.446Z,89.50
2023-04-08T18:19:28.628Z,91.20
2023-04-08T18:21:56.876Z,91.70
2023-04-08T18:24:25.213Z,92.70
2023-04-08T18:27:03.539Z,93.90
2023-04-08T18:29:34.604Z,95.30
2023-04-08T18:32:02.753Z,96.80
2023-04-08T18:34:32.014Z,99.80
2023-04-08T18:37:00.907Z,99.90
2023-04-08T18:39:29.065Z,99.90
2023-04-08T18:41:57.383Z,99.90
2023-04-08T18:44:25.830Z,99.90
2023-04-08T18:46:55.771Z,99.90
2023-04-08T18:49:23.943Z,99.90
2023-04-08T18:52:01.758Z,99.90
2023-04-08T18:54:31.593Z,99.90
2023-04-08T18:57:02.744Z,99.90
2023-04-08T18:59:31.506Z,99.90
2023-04-08T19:02:01.498Z,99.90
2023-04-08T19:04:29.938Z,99.90
2023-04-08T19:06:58.149Z,99.90
2023-04-08T19:09:26.266Z,99.90
2023-04-08T19:11:54.587Z,99.90
2023-04-08T19:14:22.710Z,99.90
2023-04-08T19:16:50.936Z,99.90
2023-04-08T19:19:20.397Z,99.90
2023-04-08T19:21:48.948Z,99.90
2023-04-08T19:24:20.863Z,99.90
2023-04-08T19:26:50.828Z,99.90
2023-04-08T19:29:19.887Z,99.90
2023-04-08T19:31:48.070Z,99.90
2023-04-08T19:34:16.207Z,99.90
2023-04-08T19:36:46.398Z,99.90
2023-04-08T19:39:14.511Z,99.90
2023-04-08T19:41:42.698Z,99.90
2023-04-08T19:44:11.020Z,99.90
2023-04-08T19:46:39.186Z,99.90
2023-04-08T19:49:07.474Z,99.90
2023-04-08T19:51:35.598Z,99.90
2023-04-08T19:54:05.131Z,99.90
2023-04-08T19:56:34.120Z,99.90
2023-04-08T19:59:02.506Z,99.90
2023-04-08T20:01:30.857Z,99.90
2023-04-08T20:03:59.086Z,99.90
2023-04-08T20:06:27.361Z,99.90
2023-04-08T20:09:05.162Z,99.90
2023-04-08T20:11:36.953Z,99.90
2023-04-08T20:14:06.059Z,99.90
2023-04-08T20:16:34.355Z,99.90
2023-04-08T20:19:02.635Z,99.90
2023-04-08T20:21:30.915Z,99.90
2023-04-08T20:23:59.097Z,99.90
2023-04-08T20:26:27.329Z,99.90
2023-04-08T20:28:58.873Z,99.90
2023-04-08T20:31:29.571Z,99.90
2023-04-08T20:34:00.417Z,99.90
2023-04-08T20:36:29.643Z,99.90
2023-04-08T20:39:00.469Z,99.90
2023-04-08T20:41:30.467Z,99.90
2023-04-08T20:43:59.939Z,99.90
2023-04-08T20:46:29.696Z,99.90
2023-04-08T20:48:58.290Z,99.90
2023-04-08T20:51:31.722Z,99.90
2023-04-08T20:54:00.044Z,99.90
2023-04-08T20:56:28.240Z,99.90
2023-04-08T20:58:58.235Z,99.90
2023-04-08T21:01:29.548Z,99.90
2023-04-08T21:04:00.796Z,99.90
2023-04-08T21:06:28.962Z,99.90
2023-04-08T21:08:58.892Z,99.90
2023-04-08T21:11:29.548Z,99.90
2023-04-08T21:13:57.688Z,99.90
2023-04-08T21:16:25.883Z,99.90
2023-04-08T21:18:57.633Z,99.90
2023-04-08T21:24:57.939Z,99.90
2023-04-08T21:27:26.194Z,99.90
2023-04-08T21:29:54.334Z,99.90
2023-04-08T21:32:22.515Z,99.90
2023-04-08T21:34:53.925Z,99.90
2023-04-08T21:37:22.741Z,99.90
2023-04-08T21:40:14.595Z,99.90
2023-04-08T21:43:02.206Z,99.90
2023-04-08T21:45:33.366Z,99.90
2023-04-08T21:48:03.988Z,99.90
2023-04-08T21:50:33.524Z,99.90
2023-04-08T21:53:02.910Z,99.90
2023-04-08T21:55:31.300Z,99.90
2023-04-08T21:58:01.362Z,99.90
2023-04-08T22:00:34.213Z,99.90
2023-04-08T22:03:05.574Z,99.90
2023-04-08T22:05:35.345Z,99.90
2023-04-08T22:08:03.613Z,99.90
2023-04-08T22:10:31.915Z,99.90
2023-04-08T22:13:00.042Z,99.90
2023-04-08T22:15:28.315Z,99.90
2023-04-08T22:17:56.476Z,99.90
2023-04-08T22:20:24.722Z,99.90
2023-04-08T22:22:54.476Z,99.90
2023-04-08T22:25:22.713Z,99.90
2023-04-08T22:27:52.321Z,99.90
2023-04-08T22:30:21.458Z,99.90
2023-04-08T22:32:49.703Z,99.90
2023-04-08T22:35:17.985Z,99.90
2023-04-08T22:37:46.188Z,99.90
2023-04-08T22:40:15.915Z,99.90
2023-04-08T22:42:44.067Z,99.90
2023-04-08T22:45:12.364Z,99.90
2023-04-08T22:47:40.538Z,99.90
2023-04-08T22:50:12.540Z,99.90
2023-04-08T22:52:40.734Z,99.90
2023-04-08T22:55:09.590Z,99.90
2023-04-08T22:57:39.129Z,99.90
2023-04-08T23:00:09.354Z,99.90
2023-04-08T23:02:37.697Z,99.90
2023-04-08T23:05:06.779Z,99.90
2023-04-08T23:07:35.463Z,99.90
2023-04-08T23:10:07.030Z,99.90
2023-04-08T23:12:35.464Z,99.90
2023-04-08T23:15:06.656Z,99.90
2023-04-08T23:17:37.807Z,99.90
2023-04-08T23:20:08.848Z,99.90
2023-04-08T23:22:39.770Z,99.90
2023-04-08T23:25:09.219Z,99.90
2023-04-08T23:27:37.528Z,99.90
2023-04-08T23:30:08.480Z,99.90
2023-04-08T23:32:37.009Z,99.90
2023-04-08T23:35:10.761Z,99.90
2023-04-08T23:37:39.650Z,99.90
2023-04-08T23:40:09.456Z,99.90
2023-04-08T23:42:37.655Z,99.90
2023-04-08T23:45:08.426Z,99.90
2023-04-08T23:47:36.798Z,99.90
2023-04-08T23:50:05.516Z,99.90
2023-04-08T23:52:33.640Z,99.90
2023-04-08T23:55:03.778Z,99.90
2023-04-08T23:57:31.886Z,99.90
